createdAt,value
2018-11-12T00:00:14.624Z,83.62
2018-11-12T00:00:45.794Z,83.78
2018-11-12T00:01:16.936Z,83.60
2018-11-12T00:01:48.057Z,83.85
2018-11-12T00:02:19.193Z,83.71
2018-11-12T00:02:50.321Z,84.10
2018-11-12T00:03:21.455Z,84.13
2018-11-12T00:03:52.572Z,84.33
2018-11-12T00:04:23.743Z,84.27
2018-11-12T00:04:54.872Z,84.23
2018-11-12T00:05:26.002Z,84.70
2018-11-12T00:05:57.132Z,85.22
2018-11-12T00:06:28.281Z,84.85
2018-11-12T00:06:59.392Z,84.67
2018-11-12T00:07:30.491Z,84.02
2018-11-12T00:08:01.604Z,84.12
2018-11-12T00:08:32.784Z,84.42
2018-11-12T00:09:03.953Z,83.79
2018-11-12T00:09:35.086Z,83.81
2018-11-12T00:10:06.219Z,83.93
2018-11-12T00:10:37.327Z,83.65
2018-11-12T00:11:08.478Z,83.36
2018-11-12T00:11:39.633Z,83.19
2018-11-12T00:12:10.764Z,83.32
2018-11-12T00:12:41.897Z,83.60
2018-11-12T00:13:13.018Z,83.33
2018-11-12T00:13:44.143Z,83.46
2018-11-12T00:14:15.310Z,83.11
2018-11-12T00:14:46.419Z,83.05
2018-11-12T00:15:17.551Z,82.93
2018-11-12T00:15:48.667Z,82.86
2018-11-12T00:16:19.779Z,82.80
2018-11-12T00:16:50.912Z,83.06
2018-11-12T00:17:22.024Z,83.19
2018-11-12T00:17:53.178Z,83.05
2018-11-12T00:18:24.318Z,83.30
2018-11-12T00:18:55.427Z,83.66
2018-11-12T00:19:26.587Z,83.73
2018-11-12T00:19:57.700Z,83.53
2018-11-12T00:20:28.821Z,83.45
2018-11-12T00:20:59.978Z,83.75
2018-11-12T00:21:31.091Z,83.79
2018-11-12T00:22:02.260Z,84.55
2018-11-12T00:22:33.372Z,83.85
2018-11-12T00:23:04.517Z,84.14
2018-11-12T00:23:35.626Z,83.79
2018-11-12T00:24:06.735Z,83.87
2018-11-12T00:24:37.886Z,84.04
2018-11-12T00:25:09.042Z,83.86
2018-11-12T00:25:40.144Z,83.84
2018-11-12T00:26:11.270Z,84.01
2018-11-12T00:26:42.418Z,84.02
2018-11-12T00:27:13.535Z,83.68
2018-11-12T00:27:44.707Z,84.13
2018-11-12T00:28:15.845Z,83.66
2018-11-12T00:28:46.960Z,84.14
2018-11-12T00:29:18.088Z,84.31
2018-11-12T00:29:49.231Z,84.38
2018-11-12T00:30:20.355Z,84.32
2018-11-12T00:30:51.479Z,84.55
2018-11-12T00:31:22.614Z,84.65
2018-11-12T00:31:53.718Z,84.73
2018-11-12T00:32:24.850Z,84.92
2018-11-12T00:32:55.998Z,84.60
2018-11-12T00:33:27.124Z,85.07
2018-11-12T00:33:58.253Z,85.18
2018-11-12T00:34:29.368Z,85.19
2018-11-12T00:35:00.562Z,84.98
2018-11-12T00:35:31.719Z,85.27
2018-11-12T00:36:02.846Z,85.27
2018-11-12T00:36:33.980Z,85.68
2018-11-12T00:37:05.092Z,85.78
2018-11-12T00:37:36.195Z,85.49
2018-11-12T00:38:07.338Z,85.42
2018-11-12T00:38:38.472Z,85.92
2018-11-12T00:39:09.621Z,85.77
2018-11-12T00:39:40.760Z,85.55
2018-11-12T00:40:11.927Z,85.49
2018-11-12T00:40:43.036Z,85.48
2018-11-12T00:41:14.163Z,85.77
2018-11-12T00:41:45.305Z,85.31
2018-11-12T00:42:16.438Z,85.44
2018-11-12T00:42:47.570Z,85.31
2018-11-12T00:43:18.662Z,85.27
2018-11-12T00:43:49.776Z,85.33
2018-11-12T00:44:20.879Z,85.01
2018-11-12T00:44:52.030Z,85.40
2018-11-12T00:45:23.225Z,85.17
2018-11-12T00:45:54.337Z,84.86
2018-11-12T00:46:25.508Z,84.98
2018-11-12T00:46:56.632Z,84.63
2018-11-12T00:47:27.735Z,84.78
2018-11-12T00:47:58.880Z,84.81
2018-11-12T00:48:29.995Z,84.63
2018-11-12T00:49:01.129Z,84.58
2018-11-12T00:49:32.265Z,85.00
2018-11-12T00:50:03.399Z,84.71
2018-11-12T00:50:34.536Z,85.17
2018-11-12T00:51:05.692Z,84.98
2018-11-12T00:51:36.798Z,85.05
2018-11-12T00:52:07.920Z,85.00
2018-11-12T00:52:39.046Z,85.09
2018-11-12T00:53:10.147Z,85.05
2018-11-12T00:53:41.268Z,84.88
2018-11-12T00:54:13.058Z,84.98
2018-11-12T00:54:44.184Z,85.14
2018-11-12T00:55:15.320Z,84.92
2018-11-12T00:55:46.458Z,85.14
2018-11-12T00:56:17.623Z,85.08
2018-11-12T00:56:48.737Z,84.88
2018-11-12T00:57:19.834Z,85.10
2018-11-12T00:57:50.997Z,84.76
2018-11-12T00:58:22.127Z,84.92
2018-11-12T00:58:53.229Z,84.54
2018-11-12T00:59:24.328Z,84.71
2018-11-12T00:59:55.428Z,84.48
2018-11-12T01:00:26.531Z,84.95
2018-11-12T01:00:57.695Z,84.69
2018-11-12T01:01:28.858Z,84.72
2018-11-12T01:02:00.010Z,84.67
2018-11-12T01:02:31.160Z,84.49
2018-11-12T01:03:02.282Z,84.32
2018-11-12T01:03:33.398Z,84.38
2018-11-12T01:04:04.598Z,84.76
2018-11-12T01:04:35.712Z,84.16
2018-11-12T01:05:06.814Z,84.11
2018-11-12T01:05:37.910Z,84.44
2018-11-12T01:06:09.103Z,84.34
2018-11-12T01:06:40.236Z,84.02
2018-11-12T01:07:11.374Z,83.97
2018-11-12T01:07:42.504Z,84.35
2018-11-12T01:08:13.630Z,84.50
2018-11-12T01:08:44.763Z,84.68
2018-11-12T01:09:15.875Z,84.69
2018-11-12T01:09:47.068Z,84.55
2018-11-12T01:10:18.187Z,84.74
2018-11-12T01:10:49.311Z,84.75
2018-11-12T01:11:20.466Z,84.54
2018-11-12T01:11:51.589Z,84.61
2018-11-12T01:12:22.705Z,85.00
2018-11-12T01:12:53.835Z,84.97
2018-11-12T01:13:24.959Z,84.73
2018-11-12T01:13:56.079Z,85.01
2018-11-12T01:14:27.220Z,85.05
2018-11-12T01:14:58.406Z,85.14
2018-11-12T01:15:29.525Z,84.99
2018-11-12T01:16:00.736Z,84.75
2018-11-12T01:16:31.851Z,84.93
2018-11-12T01:17:02.961Z,84.79
2018-11-12T01:17:34.099Z,85.17
2018-11-12T01:18:05.207Z,85.15
2018-11-12T01:18:36.344Z,84.89
2018-11-12T01:19:07.452Z,84.72
2018-11-12T01:19:38.561Z,84.78
2018-11-12T01:20:09.677Z,85.08
2018-11-12T01:20:40.816Z,85.01
2018-11-12T01:21:12.013Z,85.02
2018-11-12T01:21:43.142Z,85.02
2018-11-12T01:22:14.263Z,84.95
2018-11-12T01:22:45.389Z,84.91
2018-11-12T01:23:16.523Z,84.91
2018-11-12T01:23:47.696Z,85.12
2018-11-12T01:24:18.845Z,84.80
2018-11-12T01:24:49.956Z,85.52
2018-11-12T01:25:21.074Z,84.94
2018-11-12T01:25:52.191Z,84.76
2018-11-12T01:26:23.294Z,84.94
2018-11-12T01:26:54.418Z,84.74
2018-11-12T01:27:25.559Z,84.74
2018-11-12T01:27:56.682Z,84.99
2018-11-12T01:28:27.815Z,84.79
2018-11-12T01:28:58.945Z,84.70
2018-11-12T01:29:30.054Z,84.70
2018-11-12T01:30:01.176Z,84.69
2018-11-12T01:30:32.281Z,84.66
2018-11-12T01:31:03.412Z,84.38
2018-11-12T01:31:34.645Z,84.22
2018-11-12T01:32:05.776Z,84.14
2018-11-12T01:32:36.892Z,84.07
2018-11-12T01:33:08.012Z,84.22
2018-11-12T01:33:39.134Z,83.75
2018-11-12T01:34:10.244Z,84.00
2018-11-12T01:34:41.362Z,83.62
2018-11-12T01:35:12.491Z,83.47
2018-11-12T01:35:43.600Z,83.80
2018-11-12T01:36:14.711Z,83.70
2018-11-12T01:36:45.900Z,83.83
2018-11-12T01:37:17.055Z,83.86
2018-11-12T01:37:48.181Z,83.53
2018-11-12T01:38:19.336Z,84.02
2018-11-12T01:38:50.518Z,83.77
2018-11-12T01:39:21.656Z,84.10
2018-11-12T01:39:52.806Z,83.82
2018-11-12T01:40:23.920Z,83.55
2018-11-12T01:40:55.043Z,83.70
2018-11-12T01:41:26.158Z,83.54
2018-11-12T01:41:57.335Z,83.80
2018-11-12T01:42:28.465Z,84.12
2018-11-12T01:42:59.607Z,84.00
2018-11-12T01:43:30.708Z,83.60
2018-11-12T01:44:01.812Z,83.57
2018-11-12T01:44:32.927Z,83.56
2018-11-12T01:45:04.058Z,83.30
2018-11-12T01:45:35.164Z,83.51
2018-11-12T01:46:06.277Z,83.33
2018-11-12T01:46:37.403Z,83.85
2018-11-12T01:47:08.523Z,83.94
2018-11-12T01:47:39.639Z,83.46
2018-11-12T01:48:10.783Z,83.58
2018-11-12T01:48:41.913Z,83.69
2018-11-12T01:49:13.049Z,83.82
2018-11-12T01:49:44.154Z,83.46
2018-11-12T01:50:15.258Z,83.72
2018-11-12T01:50:46.428Z,83.77
2018-11-12T01:51:17.535Z,83.67
2018-11-12T01:51:48.687Z,83.66
2018-11-12T01:52:19.816Z,83.85
2018-11-12T01:52:50.918Z,83.60
2018-11-12T01:53:22.104Z,83.79
2018-11-12T01:53:53.216Z,83.47
2018-11-12T01:54:24.364Z,83.72
2018-11-12T01:54:55.536Z,83.79
2018-11-12T01:55:26.666Z,83.69
2018-11-12T01:55:57.819Z,83.63
2018-11-12T01:56:28.941Z,83.94
2018-11-12T01:57:00.077Z,84.10
2018-11-12T01:57:31.238Z,84.13
2018-11-12T01:58:02.407Z,84.04
2018-11-12T01:58:33.515Z,84.29
2018-11-12T01:59:04.660Z,84.34
2018-11-12T01:59:35.817Z,84.50
2018-11-12T02:00:06.974Z,84.35
2018-11-12T02:00:38.102Z,84.54
2018-11-12T02:01:09.197Z,84.24
2018-11-12T02:01:40.391Z,84.52
2018-11-12T02:02:11.510Z,84.84
2018-11-12T02:02:42.650Z,84.35
2018-11-12T02:03:13.764Z,84.61
2018-11-12T02:03:45.220Z,84.61
2018-11-12T02:04:16.332Z,84.33
2018-11-12T02:04:47.502Z,84.08
2018-11-12T02:05:18.594Z,84.42
2018-11-12T02:05:49.698Z,84.15
2018-11-12T02:06:20.875Z,84.39
2018-11-12T02:06:51.922Z,84.78
2018-11-12T02:07:23.034Z,84.70
2018-11-12T02:07:54.138Z,85.03
2018-11-12T02:08:25.268Z,84.91
2018-11-12T02:08:56.523Z,85.14
2018-11-12T02:09:27.581Z,84.72
2018-11-12T02:09:58.683Z,85.07
2018-11-12T02:10:29.821Z,85.26
2018-11-12T02:11:00.943Z,85.08
2018-11-12T02:11:32.040Z,85.04
2018-11-12T02:12:03.150Z,85.10
2018-11-12T02:12:34.249Z,84.93
2018-11-12T02:13:05.351Z,84.87
2018-11-12T02:13:36.471Z,84.87
2018-11-12T02:14:07.622Z,84.81
2018-11-12T02:14:38.864Z,84.83
2018-11-12T02:15:09.935Z,84.57
2018-11-12T02:15:41.035Z,84.54
2018-11-12T02:16:12.179Z,84.48
2018-11-12T02:16:43.292Z,84.04
2018-11-12T02:17:14.395Z,84.33
2018-11-12T02:17:45.503Z,84.37
2018-11-12T02:18:16.608Z,84.18
2018-11-12T02:18:47.734Z,84.27
2018-11-12T02:19:18.876Z,84.24
2018-11-12T02:19:50.034Z,83.91
2018-11-12T02:20:21.136Z,84.24
2018-11-12T02:20:52.253Z,84.42
2018-11-12T02:21:23.355Z,83.80
2018-11-12T02:21:54.501Z,83.84
2018-11-12T02:22:25.653Z,84.14
2018-11-12T02:22:56.787Z,83.88
2018-11-12T02:23:27.897Z,83.86
2018-11-12T02:23:59.023Z,83.64
2018-11-12T02:24:30.126Z,83.40
2018-11-12T02:25:01.257Z,83.43
2018-11-12T02:25:32.388Z,83.72
2018-11-12T02:26:03.517Z,83.75
2018-11-12T02:26:34.647Z,83.54
2018-11-12T02:27:05.811Z,83.63
2018-11-12T02:27:36.932Z,83.67
2018-11-12T02:28:08.044Z,84.25
2018-11-12T02:28:39.183Z,84.00
2018-11-12T02:29:10.359Z,83.95
2018-11-12T02:29:41.477Z,83.79
2018-11-12T02:30:12.612Z,83.57
2018-11-12T02:30:43.751Z,83.69
2018-11-12T02:31:14.899Z,83.89
2018-11-12T02:31:46.038Z,83.95
2018-11-12T02:32:17.179Z,84.23
2018-11-12T02:32:48.306Z,84.24
2018-11-12T02:33:19.504Z,84.19
2018-11-12T02:33:50.597Z,84.37
2018-11-12T02:34:21.700Z,84.66
2018-11-12T02:34:52.831Z,84.73
2018-11-12T02:35:23.957Z,84.79
2018-11-12T02:35:55.112Z,85.03
2018-11-12T02:36:26.326Z,84.55
2018-11-12T02:36:57.466Z,84.55
2018-11-12T02:37:28.577Z,84.70
2018-11-12T02:37:59.705Z,84.72
2018-11-12T02:38:30.815Z,84.32
2018-11-12T02:39:01.923Z,84.56
2018-11-12T02:39:33.039Z,84.51
2018-11-12T02:40:04.182Z,84.68
2018-11-12T02:40:35.296Z,84.60
2018-11-12T02:41:06.420Z,84.76
2018-11-12T02:41:37.591Z,84.88
2018-11-12T02:42:08.736Z,84.78
2018-11-12T02:42:39.846Z,84.96
2018-11-12T02:43:10.974Z,84.71
2018-11-12T02:43:42.075Z,84.90
2018-11-12T02:44:13.238Z,84.34
2018-11-12T02:44:44.354Z,84.53
2018-11-12T02:45:15.527Z,84.50
2018-11-12T02:45:46.660Z,84.49
2018-11-12T02:46:17.790Z,84.35
2018-11-12T02:46:48.906Z,84.50
2018-11-12T02:47:20.040Z,84.43
2018-11-12T02:47:51.326Z,84.55
2018-11-12T02:48:22.474Z,84.82
2018-11-12T02:48:53.593Z,84.74
2018-11-12T02:49:24.690Z,84.65
2018-11-12T02:49:55.802Z,84.23
2018-11-12T02:50:27.679Z,84.50
2018-11-12T02:50:58.792Z,84.02
2018-11-12T02:51:29.918Z,83.97
2018-11-12T02:52:01.065Z,83.74
2018-11-12T02:52:32.177Z,84.17
2018-11-12T02:53:03.346Z,84.17
2018-11-12T02:53:34.475Z,84.25
2018-11-12T02:54:05.607Z,84.00
2018-11-12T02:54:36.751Z,83.76
2018-11-12T02:55:07.862Z,83.82
2018-11-12T02:55:39.002Z,84.11
2018-11-12T02:56:10.149Z,83.97
2018-11-12T02:56:41.252Z,84.16
2018-11-12T02:57:12.366Z,84.37
2018-11-12T02:57:43.522Z,84.42
2018-11-12T02:58:14.627Z,84.60
2018-11-12T02:58:45.733Z,85.23
2018-11-12T02:59:16.839Z,85.46
2018-11-12T02:59:47.949Z,85.64
2018-11-12T03:00:19.051Z,85.93
2018-11-12T03:00:50.194Z,85.65
2018-11-12T03:01:21.339Z,85.37
2018-11-12T03:01:52.516Z,85.00
2018-11-12T03:02:23.616Z,85.20
2018-11-12T03:02:54.734Z,84.60
2018-11-12T03:03:25.893Z,84.85
2018-11-12T03:03:57.019Z,84.70
2018-11-12T03:04:28.178Z,84.10
2018-11-12T03:04:59.288Z,83.73
2018-11-12T03:05:30.387Z,83.74
2018-11-12T03:06:01.512Z,83.61
2018-11-12T03:06:32.677Z,83.52
2018-11-12T03:07:03.792Z,83.56
2018-11-12T03:07:35.035Z,83.25
2018-11-12T03:08:06.101Z,83.00
2018-11-12T03:08:37.211Z,83.00
2018-11-12T03:09:08.359Z,82.81
2018-11-12T03:09:39.483Z,82.65
2018-11-12T03:10:10.612Z,83.01
2018-11-12T03:10:41.755Z,83.06
2018-11-12T03:11:12.899Z,82.87
2018-11-12T03:11:44.030Z,82.54
2018-11-12T03:12:15.146Z,82.64
2018-11-12T03:12:46.247Z,82.97
2018-11-12T03:13:17.398Z,82.82
2018-11-12T03:13:48.506Z,82.95
2018-11-12T03:14:19.644Z,82.57
2018-11-12T03:14:50.743Z,82.94
2018-11-12T03:15:21.907Z,82.35
2018-11-12T03:15:53.024Z,82.41
2018-11-12T03:16:24.163Z,82.35
2018-11-12T03:16:55.342Z,82.58
2018-11-12T03:17:26.451Z,82.65
2018-11-12T03:17:57.654Z,82.54
2018-11-12T03:18:28.804Z,82.85
2018-11-12T03:18:59.906Z,82.88
2018-11-12T03:19:31.033Z,82.80
2018-11-12T03:20:02.164Z,82.77
2018-11-12T03:20:33.320Z,82.96
2018-11-12T03:21:04.436Z,82.50
2018-11-12T03:21:35.551Z,82.56
2018-11-12T03:22:06.672Z,82.80
2018-11-12T03:22:37.789Z,82.39
2018-11-12T03:23:08.895Z,83.01
2018-11-12T03:23:40.031Z,82.85
2018-11-12T03:24:11.136Z,82.97
2018-11-12T03:24:42.256Z,82.94
2018-11-12T03:25:13.394Z,82.51
2018-11-12T03:25:44.555Z,83.09
2018-11-12T03:26:15.667Z,82.75
2018-11-12T03:26:46.776Z,82.57
2018-11-12T03:27:17.883Z,82.56
2018-11-12T03:27:49.063Z,82.58
2018-11-12T03:28:20.190Z,82.41
2018-11-12T03:28:51.306Z,82.11
2018-11-12T03:29:22.415Z,82.35
2018-11-12T03:29:53.518Z,82.12
2018-11-12T03:30:24.649Z,82.30
2018-11-12T03:30:55.814Z,82.54
2018-11-12T03:31:26.929Z,82.23
2018-11-12T03:31:58.058Z,82.55
2018-11-12T03:32:29.222Z,82.64
2018-11-12T03:33:00.355Z,82.94
2018-11-12T03:33:31.473Z,83.00
2018-11-12T03:34:02.603Z,83.04
2018-11-12T03:34:33.737Z,83.11
2018-11-12T03:35:04.863Z,82.81
2018-11-12T03:35:35.985Z,83.30
2018-11-12T03:36:07.164Z,83.06
2018-11-12T03:36:38.288Z,83.33
2018-11-12T03:37:09.395Z,82.98
2018-11-12T03:37:40.538Z,83.26
2018-11-12T03:38:11.771Z,83.57
2018-11-12T03:38:42.883Z,83.23
2018-11-12T03:39:13.986Z,83.39
2018-11-12T03:39:45.185Z,83.28
2018-11-12T03:40:16.228Z,83.46
2018-11-12T03:40:47.380Z,83.34
2018-11-12T03:41:18.508Z,83.76
2018-11-12T03:41:49.675Z,83.80
2018-11-12T03:42:20.792Z,83.92
2018-11-12T03:42:51.894Z,84.16
2018-11-12T03:43:23.080Z,83.69
2018-11-12T03:43:54.226Z,84.06
2018-11-12T03:44:25.340Z,83.87
2018-11-12T03:44:56.469Z,84.28
2018-11-12T03:45:27.573Z,83.80
2018-11-12T03:45:58.679Z,84.31
2018-11-12T03:46:29.814Z,84.24
2018-11-12T03:47:00.918Z,84.15
2018-11-12T03:47:32.054Z,84.48
2018-11-12T03:48:03.156Z,84.21
2018-11-12T03:48:34.298Z,84.04
2018-11-12T03:49:05.493Z,83.87
2018-11-12T03:49:36.640Z,84.08
2018-11-12T03:50:07.775Z,84.13
2018-11-12T03:50:38.923Z,83.90
2018-11-12T03:51:10.106Z,84.08
2018-11-12T03:51:41.256Z,84.65
2018-11-12T03:52:12.428Z,84.63
2018-11-12T03:52:43.544Z,84.59
2018-11-12T03:53:14.673Z,84.42
2018-11-12T03:53:45.820Z,84.88
2018-11-12T03:54:16.971Z,84.56
2018-11-12T03:54:48.099Z,85.11
2018-11-12T03:55:19.237Z,84.67
2018-11-12T03:55:50.350Z,84.91
2018-11-12T03:56:21.466Z,84.57
2018-11-12T03:56:52.584Z,84.72
2018-11-12T03:57:23.711Z,84.38
2018-11-12T03:57:54.826Z,84.26
2018-11-12T03:58:25.962Z,84.60
2018-11-12T03:58:57.148Z,84.81
2018-11-12T03:59:28.354Z,84.74
2018-11-12T03:59:59.517Z,85.11
2018-11-12T04:00:30.744Z,85.50
2018-11-12T04:01:01.771Z,85.41
2018-11-12T04:01:32.952Z,85.42
2018-11-12T04:02:04.096Z,85.94
2018-11-12T04:02:35.224Z,85.60
2018-11-12T04:03:06.339Z,85.86
2018-11-12T04:03:37.454Z,85.97
2018-11-12T04:04:08.586Z,86.21
2018-11-12T04:04:39.764Z,86.56
2018-11-12T04:05:10.884Z,86.32
2018-11-12T04:05:42.024Z,86.56
2018-11-12T04:06:13.158Z,86.53
2018-11-12T04:06:44.341Z,86.85
2018-11-12T04:07:15.479Z,86.78
2018-11-12T04:07:46.634Z,86.99
2018-11-12T04:08:17.754Z,86.46
2018-11-12T04:08:48.900Z,86.74
2018-11-12T04:09:20.096Z,86.86
2018-11-12T04:09:51.239Z,86.64
2018-11-12T04:10:22.367Z,86.91
2018-11-12T04:10:53.473Z,86.94
2018-11-12T04:11:24.624Z,86.94
2018-11-12T04:11:55.750Z,87.02
2018-11-12T04:12:26.918Z,86.85
2018-11-12T04:12:58.047Z,86.89
2018-11-12T04:13:29.173Z,86.88
2018-11-12T04:14:00.327Z,86.63
2018-11-12T04:14:31.455Z,86.81
2018-11-12T04:15:02.608Z,86.66
2018-11-12T04:15:33.744Z,86.89
2018-11-12T04:16:04.859Z,86.79
2018-11-12T04:16:35.977Z,86.78
2018-11-12T04:17:07.142Z,86.42
2018-11-12T04:17:38.286Z,86.35
2018-11-12T04:18:09.451Z,86.49
2018-11-12T04:18:40.614Z,86.47
2018-11-12T04:19:11.733Z,86.89
2018-11-12T04:19:42.882Z,86.62
2018-11-12T04:20:14.010Z,86.54
2018-11-12T04:20:45.181Z,86.63
2018-11-12T04:21:16.334Z,87.05
2018-11-12T04:21:47.508Z,87.04
2018-11-12T04:22:18.668Z,87.18
2018-11-12T04:22:49.801Z,86.91
2018-11-12T04:23:20.957Z,86.59
2018-11-12T04:23:52.133Z,86.78
2018-11-12T04:24:23.260Z,86.60
2018-11-12T04:24:54.398Z,86.25
2018-11-12T04:25:25.520Z,86.62
2018-11-12T04:25:56.654Z,86.10
2018-11-12T04:26:27.800Z,86.18
2018-11-12T04:26:58.915Z,86.21
2018-11-12T04:27:30.073Z,86.09
2018-11-12T04:28:01.190Z,86.41
2018-11-12T04:28:32.328Z,86.37
2018-11-12T04:29:03.481Z,86.42
2018-11-12T04:29:34.639Z,87.07
2018-11-12T04:30:05.776Z,86.30
2018-11-12T04:30:36.912Z,86.73
2018-11-12T04:31:08.051Z,86.68
2018-11-12T04:31:39.230Z,86.79
2018-11-12T04:32:10.369Z,86.99
2018-11-12T04:32:41.480Z,87.44
2018-11-12T04:33:12.658Z,87.37
2018-11-12T04:33:43.806Z,87.54
2018-11-12T04:34:14.927Z,87.55
2018-11-12T04:34:46.041Z,87.39
2018-11-12T04:35:17.161Z,88.00
2018-11-12T04:35:48.333Z,87.76
2018-11-12T04:36:19.445Z,87.77
2018-11-12T04:36:50.551Z,87.92
2018-11-12T04:37:21.660Z,88.08
2018-11-12T04:37:52.772Z,87.85
2018-11-12T04:38:23.897Z,88.04
2018-11-12T04:38:55.061Z,87.96
2018-11-12T04:39:26.184Z,87.90
2018-11-12T04:39:57.305Z,88.03
2018-11-12T04:40:28.458Z,88.29
2018-11-12T04:40:59.594Z,87.86
2018-11-12T04:41:30.732Z,87.89
2018-11-12T04:42:01.854Z,87.95
2018-11-12T04:42:33.007Z,87.95
2018-11-12T04:43:04.138Z,88.10
2018-11-12T04:43:35.265Z,87.94
2018-11-12T04:44:06.424Z,88.02
2018-11-12T04:44:37.558Z,87.90
2018-11-12T04:45:08.739Z,87.77
2018-11-12T04:45:39.933Z,87.94
2018-11-12T04:46:11.111Z,88.03
2018-11-12T04:46:42.239Z,88.36
2018-11-12T04:47:13.358Z,87.83
2018-11-12T04:47:44.492Z,88.38
2018-11-12T04:48:15.660Z,87.86
2018-11-12T04:48:46.810Z,88.47
2018-11-12T04:49:17.923Z,88.08
2018-11-12T04:49:49.041Z,88.39
2018-11-12T04:50:20.189Z,88.28
2018-11-12T04:50:51.331Z,87.90
2018-11-12T04:51:22.462Z,88.05
2018-11-12T04:51:53.591Z,87.72
2018-11-12T04:52:24.731Z,87.56
2018-11-12T04:52:55.871Z,87.53
2018-11-12T04:53:27.062Z,87.15
2018-11-12T04:53:58.198Z,87.34
2018-11-12T04:54:29.338Z,87.44
2018-11-12T04:55:00.525Z,87.49
2018-11-12T04:55:31.629Z,87.30
2018-11-12T04:56:02.755Z,87.26
2018-11-12T04:56:33.901Z,87.23
2018-11-12T04:57:05.064Z,87.03
2018-11-12T04:57:36.178Z,86.97
2018-11-12T04:58:07.309Z,87.47
2018-11-12T04:58:38.455Z,87.52
2018-11-12T04:59:09.646Z,87.79
2018-11-12T04:59:40.720Z,87.59
2018-11-12T05:00:11.859Z,87.55
2018-11-12T05:00:42.969Z,87.42
2018-11-12T05:01:14.141Z,87.26
2018-11-12T05:01:45.296Z,87.12
2018-11-12T05:02:16.491Z,86.90
2018-11-12T05:02:47.662Z,87.34
2018-11-12T05:03:18.774Z,87.11
2018-11-12T05:03:49.918Z,87.05
2018-11-12T05:04:21.069Z,86.84
2018-11-12T05:04:52.465Z,86.78
2018-11-12T05:05:23.589Z,86.92
2018-11-12T05:05:54.734Z,86.32
2018-11-12T05:06:25.886Z,86.67
2018-11-12T05:06:57.004Z,86.70
2018-11-12T05:07:28.292Z,86.28
2018-11-12T05:07:59.388Z,86.45
2018-11-12T05:08:30.504Z,86.26
2018-11-12T05:09:01.660Z,86.51
2018-11-12T05:09:32.781Z,86.84
2018-11-12T05:10:03.937Z,87.32
2018-11-12T05:10:35.084Z,87.74
2018-11-12T05:11:06.211Z,87.69
2018-11-12T05:11:37.350Z,87.92
2018-11-12T05:12:08.493Z,87.88
2018-11-12T05:12:39.604Z,87.99
2018-11-12T05:13:10.721Z,88.03
2018-11-12T05:13:41.836Z,88.25
2018-11-12T05:14:13.006Z,88.17
2018-11-12T05:14:44.128Z,88.40
2018-11-12T05:15:15.334Z,88.69
2018-11-12T05:15:46.455Z,88.91
2018-11-12T05:16:17.598Z,88.93
2018-11-12T05:16:48.759Z,88.92
2018-11-12T05:17:19.888Z,88.99
2018-11-12T05:17:51.048Z,89.22
2018-11-12T05:18:22.216Z,89.08
2018-11-12T05:18:53.409Z,89.22
2018-11-12T05:19:24.539Z,89.20
2018-11-12T05:19:55.691Z,89.38
2018-11-12T05:20:26.878Z,89.57
2018-11-12T05:20:58.010Z,89.63
2018-11-12T05:21:29.156Z,89.71
2018-11-12T05:22:00.289Z,89.71
2018-11-12T05:22:31.427Z,89.51
2018-11-12T05:23:02.575Z,89.31
2018-11-12T05:23:33.751Z,89.32
2018-11-12T05:24:04.944Z,89.21
2018-11-12T05:24:36.060Z,88.97
2018-11-12T05:25:07.180Z,89.27
2018-11-12T05:25:38.329Z,89.08
2018-11-12T05:26:09.443Z,89.14
2018-11-12T05:26:40.582Z,88.91
2018-11-12T05:27:11.735Z,89.06
2018-11-12T05:27:42.872Z,88.97
2018-11-12T05:28:14.014Z,89.03
2018-11-12T05:28:45.128Z,89.13
2018-11-12T05:29:16.347Z,88.72
2018-11-12T05:29:47.483Z,88.66
2018-11-12T05:30:18.613Z,88.99
2018-11-12T05:30:49.795Z,89.00
2018-11-12T05:31:20.913Z,88.88
2018-11-12T05:31:52.034Z,88.85
2018-11-12T05:32:23.218Z,88.52
2018-11-12T05:32:54.358Z,88.66
2018-11-12T05:33:25.546Z,88.47
2018-11-12T05:33:56.668Z,88.30
2018-11-12T05:34:27.794Z,87.88
2018-11-12T05:34:58.902Z,87.85
2018-11-12T05:35:30.074Z,87.91
2018-11-12T05:36:01.199Z,87.64
2018-11-12T05:36:32.334Z,87.47
2018-11-12T05:37:03.459Z,87.18
2018-11-12T05:37:34.684Z,86.70
2018-11-12T05:38:05.786Z,87.20
2018-11-12T05:38:36.870Z,86.96
2018-11-12T05:39:07.992Z,86.77
2018-11-12T05:39:39.152Z,87.03
2018-11-12T05:40:10.303Z,87.02
2018-11-12T05:40:41.494Z,87.04
2018-11-12T05:41:12.637Z,87.01
2018-11-12T05:41:43.799Z,86.89
2018-11-12T05:42:14.938Z,86.80
2018-11-12T05:42:46.058Z,87.01
2018-11-12T05:43:17.183Z,86.99
2018-11-12T05:43:48.312Z,86.79
2018-11-12T05:44:19.438Z,87.03
2018-11-12T05:44:50.607Z,86.55
2018-11-12T05:45:21.750Z,86.94
2018-11-12T05:45:52.882Z,86.36
2018-11-12T05:46:24.049Z,86.42
2018-11-12T05:46:55.200Z,86.54
2018-11-12T05:47:26.319Z,86.54
2018-11-12T05:47:57.440Z,86.55
2018-11-12T05:48:28.599Z,86.11
2018-11-12T05:48:59.749Z,86.15
2018-11-12T05:49:30.896Z,86.39
2018-11-12T05:50:02.045Z,86.32
2018-11-12T05:50:33.190Z,86.18
2018-11-12T05:51:04.330Z,86.38
2018-11-12T05:51:35.633Z,86.01
2018-11-12T05:52:06.687Z,85.92
2018-11-12T05:52:37.831Z,85.75
2018-11-12T05:53:08.945Z,86.08
2018-11-12T05:53:40.103Z,85.62
2018-11-12T05:54:11.251Z,85.96
2018-11-12T05:54:42.382Z,85.76
2018-11-12T05:55:13.480Z,85.41
2018-11-12T05:55:44.618Z,85.36
2018-11-12T05:56:15.751Z,85.32
2018-11-12T05:56:46.854Z,85.01
2018-11-12T05:57:18.000Z,84.92
2018-11-12T05:57:49.214Z,85.06
2018-11-12T05:58:20.325Z,85.21
2018-11-12T05:58:51.516Z,84.54
2018-11-12T05:59:22.651Z,84.46
2018-11-12T05:59:53.791Z,84.17
2018-11-12T06:00:24.920Z,83.91
2018-11-12T06:00:56.077Z,83.69
2018-11-12T06:01:27.235Z,83.79
2018-11-12T06:01:58.379Z,83.39
2018-11-12T06:02:29.495Z,83.66
2018-11-12T06:03:00.670Z,83.31
2018-11-12T06:03:31.819Z,83.43
2018-11-12T06:04:02.961Z,83.26
2018-11-12T06:04:34.139Z,82.71
2018-11-12T06:05:05.300Z,82.59
2018-11-12T06:05:36.474Z,82.20
2018-11-12T06:06:07.591Z,82.13
2018-11-12T06:06:38.694Z,81.86
2018-11-12T06:07:09.829Z,82.25
2018-11-12T06:07:40.961Z,81.87
2018-11-12T06:08:12.089Z,81.54
2018-11-12T06:08:43.250Z,81.83
2018-11-12T06:09:14.386Z,81.70
2018-11-12T06:09:45.505Z,81.54
2018-11-12T06:10:16.684Z,81.45
2018-11-12T06:10:47.815Z,81.66
2018-11-12T06:11:18.977Z,81.62
2018-11-12T06:11:50.072Z,81.69
2018-11-12T06:12:21.208Z,81.78
2018-11-12T06:12:52.366Z,81.09
2018-11-12T06:13:23.530Z,81.05
2018-11-12T06:13:54.651Z,80.91
2018-11-12T06:14:25.780Z,80.71
2018-11-12T06:14:56.895Z,80.72
2018-11-12T06:15:28.020Z,80.41
2018-11-12T06:15:59.147Z,80.43
2018-11-12T06:16:30.274Z,80.07
2018-11-12T06:17:01.385Z,80.38
2018-11-12T06:17:32.536Z,79.97
2018-11-12T06:18:03.719Z,80.50
2018-11-12T06:18:34.868Z,80.35
2018-11-12T06:19:06.004Z,79.89
2018-11-12T06:19:37.136Z,80.03
2018-11-12T06:20:08.286Z,80.02
2018-11-12T06:20:39.406Z,80.31
2018-11-12T06:21:10.514Z,79.86
2018-11-12T06:21:41.645Z,79.79
2018-11-12T06:22:12.790Z,79.68
2018-11-12T06:22:44.169Z,79.41
2018-11-12T06:23:15.122Z,79.35
2018-11-12T06:23:46.305Z,79.05
2018-11-12T06:24:17.461Z,78.96
2018-11-12T06:24:48.572Z,78.50
2018-11-12T06:25:19.984Z,78.37
2018-11-12T06:25:51.130Z,78.05
2018-11-12T06:26:22.239Z,78.21
2018-11-12T06:26:53.362Z,78.00
2018-11-12T06:27:24.491Z,78.12
2018-11-12T06:27:55.624Z,77.75
2018-11-12T06:28:26.749Z,77.72
2018-11-12T06:28:57.932Z,77.64
2018-11-12T06:29:29.066Z,77.65
2018-11-12T06:30:00.182Z,77.70
2018-11-12T06:30:31.328Z,78.04
2018-11-12T06:31:02.555Z,77.87
2018-11-12T06:31:33.690Z,77.83
2018-11-12T06:32:04.809Z,78.01
2018-11-12T06:32:35.938Z,77.60
2018-11-12T06:33:07.062Z,77.48
2018-11-12T06:33:38.217Z,77.35
2018-11-12T06:34:09.423Z,77.47
2018-11-12T06:34:40.555Z,77.05
2018-11-12T06:35:11.686Z,76.43
2018-11-12T06:35:42.806Z,76.51
2018-11-12T06:36:13.940Z,75.98
2018-11-12T06:36:45.108Z,75.83
2018-11-12T06:37:16.204Z,75.20
2018-11-12T06:37:47.330Z,75.06
2018-11-12T06:38:18.435Z,74.50
2018-11-12T06:38:49.544Z,74.45
2018-11-12T06:39:20.715Z,73.93
2018-11-12T06:39:51.811Z,73.84
2018-11-12T06:40:22.916Z,73.05
2018-11-12T06:40:54.070Z,72.90